Nearby METAR Reports

 

KMTN - Baltimore/Martin, Maryland, USA
Distance from station: SSE 8mi, 13km
Updated: Fri, 29-May-2015 4:55pm EDT
Few Clouds
Few Clouds
 Wind from E
Wind: E 6 mph , 9 km/h
Temperature: 82°F , 28°C
Heat Index: 86°F , 30°C
Dew Point: 70°F , 21°C
Humidity: 66%
Barometer: 30.22 inHg , 1023.4 hPa
Clouds: Few Clouds
Visibility: 10 miles , 16 km
Cloud details: Few Clouds 15000 ft
2015/05/29 20:55 KMTN 292055Z 10005KT 10SM FEW150 28/21 A3022
KDMH - Baltimore/Dwntwn, Maryland, USA
Distance from station: SW 12mi, 19km
Updated: Fri, 29-May-2015 5:54pm EDT

 
Temperature: 81°F , 27°C
Heat Index: 83°F , 28°C
Dew Point: 66°F , 19°C
Humidity: 62%
Barometer: 30.20 inHg , 1022.7 hPa
2015/05/29 21:54 KDMH 292154Z AUTO 27/19 A3020 RMK AO1 SLP225 T02720194
 
KBWI - Balto/Wash Intl, Maryland, USA
Distance from station: SSW 20mi, 33km
Updated: Fri, 29-May-2015 5:54pm EDT
Mostly cloudy
Mostly cloudy
 Wind from ESE
Wind: ESE 14 mph , 22 km/h, Gust: 17 mph , 28 km/h
Temperature: 82°F , 28°C
Heat Index: 85°F , 29°C
Dew Point: 68°F , 20°C
Humidity: 62%
Barometer: 30.18 inHg , 1022 hPa
Clouds: Mostly cloudy
Visibility: 10 miles , 16 km
Cloud details: Partly cloudy 3400 ft
Partly cloudy 13000 ft
Mostly cloudy 25000 ft
2015/05/29 21:54 KBWI 292154Z 11012G15KT 10SM SCT034 SCT130 BKN250 28/20 A3018 RMK AO2 SLP218 T02830200
KDMW - Carroll Cnty, Maryland, USA
Distance from station: WNW 30mi, 48km
Updated: Fri, 29-May-2015 5:55pm EDT
Clear
Clear
 Wind from SE
Wind: SE 7 mph , 11 km/h
Temperature: 84°F , 29°C
Heat Index: 86°F , 30°C
Dew Point: 66°F , 19°C
Humidity: 55%
Barometer: 30.20 inHg , 1022.7 hPa
Clouds: Clear
Visibility: 10 miles , 16 km
2015/05/29 21:55 KDMW 292155Z AUTO 14006KT 10SM CLR 29/19 A3020 RMK AO2
 
KNAK - Annapolis/Naval, Maryland, USA
Distance from station: S 30mi, 48km
Updated: Fri, 29-May-2015 5:54pm EDT
Partly cloudy
Partly cloudy
 Wind from SE
Wind: SE 10 mph , 17 km/h, Gust: 22 mph , 35 km/h
Temperature: 77°F , 25°C
Dew Point: 68°F , 20°C
Humidity: 74%
Barometer: 30.20 inHg , 1022.7 hPa
Clouds: Partly cloudy
Visibility: 10 miles , 16 km
Cloud details: Partly cloudy 3200 ft
2015/05/29 21:54 KNAK 292154Z AUTO 13009G19KT 10SM SCT032 25/20 A3020 RMK AO2 SLP226 T02500200
KW29 - Stevensville, Maryland, USA
Distance from station: SSE 31mi, 50km
Updated: Fri, 29-May-2015 5:35pm EDT

 Wind from SE
Wind: SE 10 mph , 17 km/h, Gust: 16 mph , 26 km/h
Barometer: 30.21 inHg , 1023 hPa
Visibility: 10 miles , 16 km
2015/05/29 21:35 KW29 292135Z AUTO 13009G14KT 10SM A3021 RMK AO1
 
KCGS - College Park, Maryland, USA
Distance from station: SW 38mi, 61km
Updated: Fri, 29-May-2015 5:55pm EDT
Partly cloudy
Partly cloudy
 Wind from ESE
Wind: ESE 7 mph , 11 km/h
Temperature: 84°F , 29°C
Heat Index: 87°F , 31°C
Dew Point: 68°F , 20°C
Humidity: 58%
Barometer: 30.18 inHg , 1022 hPa
Clouds: Partly cloudy
Visibility: 10 miles , 16 km
Cloud details: Partly cloudy 3700 ft
2015/05/29 21:55 KCGS 292155Z AUTO 12006KT 10SM SCT037 29/20 A3018 RMK AO1
KGAI - Gaithersburg, Maryland, USA
Distance from station: WSW 40mi, 65km
Updated: Fri, 29-May-2015 5:55pm EDT
Few Clouds
Few Clouds
 Wind from SE
Wind: SE 8 mph , 13 km/h
Temperature: 82°F , 28°C
Heat Index: 85°F , 29°C
Dew Point: 68°F , 20°C
Humidity: 62%
Barometer: 30.22 inHg , 1023.4 hPa
Clouds: Few Clouds
Visibility: 10 miles , 16 km
Cloud details: Few Clouds 3600 ft
2015/05/29 21:55 KGAI 292155Z AUTO 13007KT 10SM FEW036 28/20 A3022 RMK AO1
 
KTHV - York, Pennsylvania, USA
Distance from station: NNW 40mi, 65km
Updated: Fri, 29-May-2015 5:53pm EDT
Few Clouds
Few Clouds
 Wind from SE
Wind: SE 9 mph , 15 km/h
Temperature: 82°F , 28°C
Heat Index: 84°F , 29°C
Dew Point: 66°F , 19°C
Humidity: 58%
Barometer: 30.18 inHg , 1022 hPa
Clouds: Few Clouds
Visibility: 10 miles , 16 km
Cloud details: Few Clouds 11000 ft
2015/05/29 21:53 KTHV 292153Z AUTO 14008KT 10SM FEW110 28/19 A3018 RMK AO2 SLP218 T02780194
KFDK - Frederick, Maryland, USA
Distance from station: W 47mi, 75km
Updated: Fri, 29-May-2015 5:47pm EDT
Partly cloudy
Partly cloudy
 Wind from S
Wind: S 6 mph , 9 km/h
Temperature: 86°F , 30°C
Heat Index: 89°F , 32°C
Dew Point: 68°F , 20°C
Humidity: 55%
Barometer: 30.20 inHg , 1022.7 hPa
Clouds: Partly cloudy
Visibility: 10 miles , 16 km
Cloud details: Partly cloudy 4500 ft
2015/05/29 21:47 KFDK 292147Z 17005KT 10SM SCT045 30/20 A3020
 
KESN - Easton/Newnam, Maryland, USA
Distance from station: SSE 48mi, 78km
Updated: Fri, 29-May-2015 5:50pm EDT
Rain, Partly cloudy
Rain, Partly cloudy
 Wind from calm
Wind: Calm
Temperature: 73°F , 23°C
Dew Point: 73°F , 23°C
Humidity: 100%
Barometer: 30.24 inHg , 1024 hPa
Summary: Rain
Clouds: Partly cloudy
Visibility: 7 miles , 11 km
Cloud details: Partly cloudy 800 ft
Partly cloudy 1300 ft
Partly cloudy 2000 ft
2015/05/29 21:50 KESN 292150Z 00000KT 7SM RA SCT008 SCT013 SCT020 23/23 A3024 RMK TSE 45
KDCA - Washington/Natl, Washington D.c., USA
Distance from station: SW 49mi, 79km
Updated: Fri, 29-May-2015 5:52pm EDT
Partly cloudy
Partly cloudy
 Wind from SE
Wind: SE 7 mph , 11 km/h
Temperature: 84°F , 29°C
Heat Index: 88°F , 31°C
Dew Point: 70°F , 21°C
Humidity: 62%
Barometer: 30.18 inHg , 1022 hPa
Clouds: Partly cloudy
Visibility: 10 miles , 16 km
Cloud details: Partly cloudy 3700 ft
Partly cloudy 10000 ft
Partly cloudy 25000 ft
2015/05/29 21:52 KDCA 292152Z 13006KT 10SM SCT037TCU SCT100 SCT250 29/21 A3018 RMK AO2 SLP220 CB DSNT S-SW MOV N TCU S T02940211
 
KLNS - Lancaster, Pennsylvania, USA
Distance from station: N 49mi, 79km
Updated: Fri, 29-May-2015 5:53pm EDT
Clear
Clear
 Wind from SSE
Wind: SSE 10 mph , 17 km/h
Temperature: 84°F , 29°C
Heat Index: 85°F , 29°C
Dew Point: 63°F , 17°C
Humidity: 48%
Barometer: 30.18 inHg , 1022 hPa
Clouds: Clear
Visibility: 8 miles , 13 km
2015/05/29 21:53 KLNS 292153Z 15009KT 8SM CLR 29/17 A3018 RMK AO2 SLP218 T02890172
KILG - Wilmington, Delaware, USA
Distance from station: ENE 50mi, 81km
Updated: Fri, 29-May-2015 5:51pm EDT
Clear
Clear
 Wind from SSE
Wind: SSE 15 mph , 24 km/h
Temperature: 77°F , 25°C
Dew Point: 66°F , 19°C
Humidity: 69%
Barometer: 30.21 inHg , 1023 hPa
Clouds: Clear
Visibility: 10 miles , 16 km
2015/05/29 21:51 KILG 292151Z 16013KT 10SM CLR 25/19 A3021 RMK AO2 SLP229 T02500194